DRK295 OMDB-VQPR
Flight info
| Callsign | DRK295 |
|---|---|
| Flight time | 4h 15m |
| Altitude | 35000 |
| Route | IVURO M677 LALDO B505 NADSO A777 VAXIM L301 RASKI L639 BPL/N0458F370 G590 BBN W44 PPT Q18 BGD G348 SUBSU SUBSU1 |
| Aircraft | A319/M-SDE3FGHIRWY/LB1 |
Departure
| Time | 2026-04-26 09:26 |
|---|---|
| Airport | Dubai International Airport (OMDB) |
Arrival
| Time | 2026-04-26 13:41 |
|---|---|
| Airport | Paro International Airport (VQPR) |
| Time | Latitude | Longitude | Altitude | Speed | Heading |
|---|---|---|---|---|---|
| 2026-04-26 08:25 | 25.26043 | 55.34198 | 23 ft | 0 kts | 211° |
| 2026-04-26 09:02 | 25.26058 | 55.34208 | 25 ft | 4 kts | 211° |
| 2026-04-26 09:02 | 25.26081 | 55.34223 | 25 ft | 4 kts | 211° |
| 2026-04-26 09:02 | 25.26105 | 55.34238 | 24 ft | 4 kts | 204° |
| 2026-04-26 09:03 | 25.26130 | 55.34247 | 22 ft | 4 kts | 178° |
| 2026-04-26 09:03 | 25.26150 | 55.34239 | 26 ft | 2 kts | 122° |
| 2026-04-26 09:03 | 25.26150 | 55.34238 | 26 ft | 0 kts | 121° |
| 2026-04-26 09:12 | 25.26150 | 55.34239 | 22 ft | 0 kts | 121° |
| 2026-04-26 09:12 | 25.26142 | 55.34254 | 24 ft | 4 kts | 120° |
| 2026-04-26 09:12 | 25.26121 | 55.34291 | 23 ft | 8 kts | 122° |
| 2026-04-26 09:12 | 25.26080 | 55.34360 | 22 ft | 13 kts | 122° |
| 2026-04-26 09:13 | 25.26025 | 55.34463 | 24 ft | 18 kts | 120° |
| 2026-04-26 09:13 | 25.26035 | 55.34575 | 22 ft | 18 kts | 31° |
| 2026-04-26 09:13 | 25.26127 | 55.34670 | 22 ft | 19 kts | 47° |
| 2026-04-26 09:13 | 25.26201 | 55.34756 | 22 ft | 4 kts | 37° |
| 2026-04-26 09:15 | 25.26209 | 55.34762 | 22 ft | 4 kts | 36° |
| 2026-04-26 09:15 | 25.26247 | 55.34789 | 22 ft | 9 kts | 31° |
| 2026-04-26 09:15 | 25.26309 | 55.34832 | 24 ft | 12 kts | 33° |
| 2026-04-26 09:15 | 25.26353 | 55.34905 | 22 ft | 12 kts | 106° |
| 2026-04-26 09:16 | 25.26309 | 55.34988 | 23 ft | 13 kts | 122° |
| 2026-04-26 09:16 | 25.26261 | 55.35072 | 22 ft | 13 kts | 122° |
| 2026-04-26 09:16 | 25.26214 | 55.35157 | 24 ft | 13 kts | 121° |
| 2026-04-26 09:16 | 25.26163 | 55.35246 | 22 ft | 15 kts | 122° |
| 2026-04-26 09:17 | 25.26103 | 55.35353 | 22 ft | 18 kts | 121° |
| 2026-04-26 09:17 | 25.26059 | 55.35436 | 22 ft | 20 kts | 120° |
| 2026-04-26 09:17 | 25.25950 | 55.35623 | 24 ft | 23 kts | 121° |
| 2026-04-26 09:17 | 25.25863 | 55.35781 | 23 ft | 25 kts | 122° |
| 2026-04-26 09:18 | 25.25767 | 55.35950 | 24 ft | 27 kts | 122° |
| 2026-04-26 09:18 | 25.25667 | 55.36130 | 24 ft | 28 kts | 122° |
| 2026-04-26 09:18 | 25.25563 | 55.36317 | 22 ft | 29 kts | 121° |
| 2026-04-26 09:18 | 25.25449 | 55.36513 | 23 ft | 32 kts | 122° |
| 2026-04-26 09:19 | 25.25325 | 55.36736 | 22 ft | 36 kts | 122° |
| 2026-04-26 09:19 | 25.25193 | 55.36971 | 22 ft | 35 kts | 122° |
| 2026-04-26 09:19 | 25.25064 | 55.37201 | 22 ft | 32 kts | 122° |
| 2026-04-26 09:19 | 25.24946 | 55.37410 | 24 ft | 31 kts | 122° |
| 2026-04-26 09:20 | 25.24842 | 55.37595 | 22 ft | 29 kts | 121° |
| 2026-04-26 09:20 | 25.24765 | 55.37732 | 22 ft | 11 kts | 121° |
| 2026-04-26 09:20 | 25.24727 | 55.37799 | 24 ft | 8 kts | 122° |
| 2026-04-26 09:20 | 25.24714 | 55.37862 | 22 ft | 9 kts | 68° |
| 2026-04-26 09:21 | 25.24750 | 55.37895 | 22 ft | 0 kts | 33° |
| 2026-04-26 09:23 | 25.24754 | 55.37897 | 22 ft | 1 kts | 33° |
| 2026-04-26 09:24 | 25.24767 | 55.37907 | 22 ft | 4 kts | 32° |
| 2026-04-26 09:24 | 25.24787 | 55.37921 | 22 ft | 7 kts | 32° |
| 2026-04-26 09:24 | 25.24812 | 55.37938 | 22 ft | 3 kts | 32° |
| 2026-04-26 09:24 | 25.24832 | 55.37944 | 22 ft | 5 kts | 3° |
| 2026-04-26 09:25 | 25.24867 | 55.37914 | 22 ft | 9 kts | 308° |
| 2026-04-26 09:25 | 25.24888 | 55.37878 | 23 ft | 3 kts | 302° |
| 2026-04-26 09:25 | 25.24906 | 55.37846 | 22 ft | 11 kts | 301° |
| 2026-04-26 09:25 | 25.25088 | 55.37520 | 23 ft | 89 kts | 301° |
| 2026-04-26 09:26 | 25.25532 | 55.36721 | 24 ft | 152 kts | 301° |
| 2026-04-26 09:26 | 25.26151 | 55.35597 | 331 ft | 174 kts | 301° |
| 2026-04-26 09:26 | 25.26769 | 55.34447 | 1027 ft | 174 kts | 303° |
| 2026-04-26 09:26 | 25.27410 | 55.33296 | 1529 ft | 179 kts | 302° |
| 2026-04-26 09:27 | 25.28069 | 55.32120 | 1922 ft | 182 kts | 303° |
| 2026-04-26 09:27 | 25.28743 | 55.30914 | 2307 ft | 185 kts | 303° |
| 2026-04-26 09:27 | 25.29610 | 55.29872 | 2726 ft | 186 kts | 329° |
| 2026-04-26 09:27 | 25.30862 | 55.29482 | 3087 ft | 195 kts | 358° |
| 2026-04-26 09:28 | 25.32229 | 55.29530 | 3492 ft | 198 kts | 0° |
| 2026-04-26 09:28 | 25.33595 | 55.29569 | 3915 ft | 199 kts | 359° |
| 2026-04-26 09:28 | 25.34986 | 55.29603 | 4352 ft | 201 kts | 359° |
| 2026-04-26 09:28 | 25.36436 | 55.29635 | 4539 ft | 218 kts | 359° |
| 2026-04-26 09:29 | 25.38023 | 55.29678 | 4741 ft | 235 kts | 2° |
| 2026-04-26 09:29 | 25.39624 | 55.30151 | 5232 ft | 244 kts | 25° |
| 2026-04-26 09:29 | 25.41023 | 55.31318 | 5511 ft | 266 kts | 46° |
| 2026-04-26 09:29 | 25.42228 | 55.32970 | 5849 ft | 282 kts | 50° |
| 2026-04-26 09:30 | 25.43465 | 55.34685 | 6425 ft | 288 kts | 50° |
| 2026-04-26 09:30 | 25.44726 | 55.36424 | 7022 ft | 291 kts | 49° |
| 2026-04-26 09:30 | 25.46004 | 55.38178 | 7636 ft | 295 kts | 49° |
| 2026-04-26 09:30 | 25.47303 | 55.39953 | 8273 ft | 298 kts | 49° |
| 2026-04-26 09:31 | 25.48611 | 55.41741 | 8901 ft | 301 kts | 49° |
| 2026-04-26 09:31 | 25.49917 | 55.43571 | 9533 ft | 305 kts | 50° |
| 2026-04-26 09:31 | 25.51137 | 55.45508 | 10111 ft | 311 kts | 60° |
| 2026-04-26 09:31 | 25.51940 | 55.47812 | 10252 ft | 333 kts | 77° |
| 2026-04-26 09:32 | 25.52139 | 55.50437 | 10359 ft | 353 kts | 94° |
| 2026-04-26 09:32 | 25.51621 | 55.53157 | 10478 ft | 371 kts | 112° |
| 2026-04-26 09:32 | 25.50393 | 55.55726 | 10599 ft | 386 kts | 123° |
| 2026-04-26 09:32 | 25.48947 | 55.58273 | 10908 ft | 394 kts | 124° |
| 2026-04-26 09:33 | 25.47475 | 55.60850 | 11404 ft | 397 kts | 123° |
| 2026-04-26 09:33 | 25.45992 | 55.63439 | 11952 ft | 399 kts | 124° |
| 2026-04-26 09:33 | 25.44503 | 55.66041 | 12484 ft | 401 kts | 124° |
| 2026-04-26 09:33 | 25.43104 | 55.68727 | 13003 ft | 405 kts | 117° |
| 2026-04-26 09:34 | 25.42135 | 55.71680 | 13523 ft | 410 kts | 106° |
| 2026-04-26 09:34 | 25.41491 | 55.74761 | 13999 ft | 413 kts | 104° |
| 2026-04-26 09:34 | 25.40838 | 55.77867 | 14439 ft | 415 kts | 104° |
| 2026-04-26 09:34 | 25.40179 | 55.80950 | 14842 ft | 419 kts | 105° |
| 2026-04-26 09:35 | 25.39492 | 55.84138 | 15282 ft | 423 kts | 104° |
| 2026-04-26 09:35 | 25.38814 | 55.87272 | 15699 ft | 426 kts | 105° |
| 2026-04-26 09:35 | 25.38123 | 55.90475 | 16078 ft | 431 kts | 104° |
| 2026-04-26 09:35 | 25.37428 | 55.93716 | 16517 ft | 434 kts | 104° |
| 2026-04-26 09:36 | 25.36733 | 55.96975 | 16935 ft | 437 kts | 104° |
| 2026-04-26 09:36 | 25.36032 | 56.00259 | 17327 ft | 440 kts | 104° |
| 2026-04-26 09:36 | 25.35324 | 56.03569 | 17727 ft | 444 kts | 104° |
| 2026-04-26 09:36 | 25.34611 | 56.06902 | 18121 ft | 447 kts | 104° |
| 2026-04-26 09:37 | 25.33894 | 56.10252 | 18461 ft | 449 kts | 104° |
| 2026-04-26 09:37 | 25.33168 | 56.13629 | 18803 ft | 452 kts | 104° |
| 2026-04-26 09:37 | 25.32647 | 56.17025 | 19125 ft | 455 kts | 96° |
| 2026-04-26 09:37 | 25.32363 | 56.20521 | 19452 ft | 458 kts | 96° |
| 2026-04-26 09:38 | 25.32072 | 56.24035 | 19796 ft | 461 kts | 96° |
| 2026-04-26 09:38 | 25.31775 | 56.27571 | 20142 ft | 463 kts | 96° |
| 2026-04-26 09:38 | 25.31477 | 56.31121 | 20454 ft | 465 kts | 96° |
| 2026-04-26 09:38 | 25.31178 | 56.34696 | 20802 ft | 468 kts | 96° |
| 2026-04-26 09:39 | 25.30879 | 56.38279 | 21119 ft | 470 kts | 96° |
| 2026-04-26 09:39 | 25.30616 | 56.41889 | 21420 ft | 473 kts | 95° |
| 2026-04-26 09:39 | 25.30452 | 56.45532 | 21720 ft | 475 kts | 93° |
| 2026-04-26 09:39 | 25.30359 | 56.49202 | 22017 ft | 478 kts | 92° |
| 2026-04-26 09:40 | 25.30302 | 56.52886 | 22304 ft | 481 kts | 92° |
| 2026-04-26 09:40 | 25.30220 | 56.56590 | 22565 ft | 483 kts | 95° |
| 2026-04-26 09:40 | 25.29748 | 56.60267 | 22821 ft | 483 kts | 104° |
| 2026-04-26 09:40 | 25.28758 | 56.63811 | 23074 ft | 483 kts | 114° |
| 2026-04-26 09:41 | 25.27439 | 56.67237 | 23318 ft | 485 kts | 116° |
| 2026-04-26 09:41 | 25.26115 | 56.70671 | 23554 ft | 487 kts | 115° |
| 2026-04-26 09:41 | 25.24815 | 56.74080 | 23773 ft | 489 kts | 115° |
| 2026-04-26 09:41 | 25.23481 | 56.77597 | 24005 ft | 491 kts | 115° |
| 2026-04-26 09:42 | 25.22181 | 56.81036 | 24228 ft | 493 kts | 115° |
| 2026-04-26 09:42 | 25.20860 | 56.84536 | 24451 ft | 494 kts | 115° |
| 2026-04-26 09:42 | 25.19535 | 56.88046 | 24672 ft | 496 kts | 115° |
| 2026-04-26 09:42 | 25.18202 | 56.91560 | 24879 ft | 498 kts | 115° |
| 2026-04-26 09:43 | 25.16856 | 56.95091 | 25088 ft | 499 kts | 115° |
| 2026-04-26 09:43 | 25.15504 | 56.98635 | 25301 ft | 501 kts | 115° |
| 2026-04-26 09:43 | 25.14150 | 57.02186 | 25505 ft | 502 kts | 115° |
| 2026-04-26 09:43 | 25.12792 | 57.05746 | 25714 ft | 504 kts | 115° |
| 2026-04-26 09:44 | 25.11426 | 57.09324 | 25920 ft | 506 kts | 115° |
| 2026-04-26 09:44 | 25.10060 | 57.12899 | 26126 ft | 507 kts | 115° |
| 2026-04-26 09:44 | 25.08682 | 57.16494 | 26319 ft | 509 kts | 115° |
| 2026-04-26 09:44 | 25.07300 | 57.20095 | 26516 ft | 510 kts | 115° |
| 2026-04-26 09:45 | 25.05920 | 57.23698 | 26767 ft | 510 kts | 115° |
| 2026-04-26 09:45 | 25.04536 | 57.27305 | 27058 ft | 509 kts | 115° |
| 2026-04-26 09:45 | 25.03155 | 57.30898 | 27346 ft | 509 kts | 115° |
| 2026-04-26 09:45 | 25.01772 | 57.34492 | 27633 ft | 508 kts | 115° |
| 2026-04-26 09:46 | 25.00409 | 57.38035 | 27924 ft | 508 kts | 115° |
| 2026-04-26 09:46 | 24.99029 | 57.41622 | 28207 ft | 507 kts | 115° |
| 2026-04-26 09:46 | 24.97653 | 57.45196 | 28557 ft | 505 kts | 115° |
| 2026-04-26 09:46 | 24.96278 | 57.48767 | 28878 ft | 504 kts | 115° |
| 2026-04-26 09:47 | 24.94906 | 57.52320 | 29181 ft | 504 kts | 115° |
| 2026-04-26 09:47 | 24.93528 | 57.55883 | 29492 ft | 503 kts | 115° |
| 2026-04-26 09:47 | 24.92174 | 57.59384 | 29793 ft | 503 kts | 115° |
| 2026-04-26 09:47 | 24.90804 | 57.62922 | 30059 ft | 502 kts | 115° |
| 2026-04-26 09:48 | 24.89432 | 57.66470 | 30280 ft | 503 kts | 115° |
| 2026-04-26 09:48 | 24.88060 | 57.70011 | 30489 ft | 503 kts | 114° |
| 2026-04-26 09:48 | 24.86683 | 57.73559 | 30696 ft | 504 kts | 114° |
| 2026-04-26 09:48 | 24.85304 | 57.77110 | 30905 ft | 505 kts | 114° |
| 2026-04-26 09:49 | 24.83919 | 57.80680 | 31113 ft | 506 kts | 114° |
| 2026-04-26 09:49 | 24.82520 | 57.84229 | 31313 ft | 506 kts | 115° |
| 2026-04-26 09:49 | 24.81045 | 57.87758 | 31563 ft | 506 kts | 116° |
| 2026-04-26 09:49 | 24.79518 | 57.91245 | 31780 ft | 506 kts | 116° |
| 2026-04-26 09:50 | 24.77974 | 57.94678 | 31996 ft | 506 kts | 116° |
| 2026-04-26 09:50 | 24.76405 | 57.98149 | 32223 ft | 507 kts | 116° |
| 2026-04-26 09:50 | 24.74846 | 58.01625 | 32440 ft | 507 kts | 116° |
| 2026-04-26 09:50 | 24.73300 | 58.05116 | 32642 ft | 508 kts | 115° |
| 2026-04-26 09:51 | 24.71766 | 58.08619 | 32862 ft | 509 kts | 115° |
| 2026-04-26 09:51 | 24.70236 | 58.12136 | 33059 ft | 509 kts | 115° |
| 2026-04-26 09:51 | 24.68712 | 58.15646 | 33270 ft | 510 kts | 114° |
| 2026-04-26 09:51 | 24.67179 | 58.19169 | 33477 ft | 510 kts | 114° |
| 2026-04-26 09:52 | 24.65642 | 58.22689 | 33698 ft | 511 kts | 114° |
| 2026-04-26 09:52 | 24.62552 | 58.29726 | 34090 ft | 511 kts | 114° |
| 2026-04-26 09:52 | 24.60999 | 58.33240 | 34287 ft | 511 kts | 114° |
| 2026-04-26 09:53 | 24.59442 | 58.36758 | 34472 ft | 511 kts | 114° |
| 2026-04-26 09:53 | 24.57889 | 58.40268 | 34658 ft | 511 kts | 114° |
| 2026-04-26 09:53 | 24.56332 | 58.43789 | 34792 ft | 512 kts | 114° |
| 2026-04-26 09:53 | 24.54773 | 58.47320 | 34830 ft | 514 kts | 114° |
| 2026-04-26 09:54 | 24.51662 | 58.54373 | 34827 ft | 513 kts | 114° |
| 2026-04-26 09:54 | 24.48550 | 58.61421 | 34823 ft | 513 kts | 114° |
| 2026-04-26 09:55 | 24.46558 | 58.64613 | 34652 ft | 512 kts | 125° |
| 2026-04-26 09:55 | 24.44673 | 58.67918 | 34827 ft | 509 kts | 116° |
| 2026-04-26 09:55 | 24.41904 | 58.75082 | 34824 ft | 510 kts | 108° |
| 2026-04-26 09:56 | 24.39343 | 58.82349 | 34828 ft | 512 kts | 111° |
| 2026-04-26 09:56 | 24.36330 | 58.89443 | 34832 ft | 513 kts | 115° |
| 2026-04-26 09:57 | 24.33060 | 58.96411 | 34834 ft | 514 kts | 115° |
| 2026-04-26 09:57 | 24.29822 | 59.03403 | 34838 ft | 514 kts | 115° |
| 2026-04-26 09:58 | 24.26704 | 59.10396 | 34843 ft | 513 kts | 114° |
| 2026-04-26 09:58 | 24.23602 | 59.17423 | 34847 ft | 512 kts | 114° |
| 2026-04-26 09:59 | 24.21010 | 59.23247 | 34845 ft | 511 kts | 114° |
| 2026-04-26 09:59 | 24.17337 | 59.31411 | 34851 ft | 511 kts | 114° |
| 2026-04-26 10:00 | 24.14188 | 59.38389 | 34845 ft | 510 kts | 115° |
| 2026-04-26 10:00 | 24.11066 | 59.45308 | 34849 ft | 509 kts | 114° |
| 2026-04-26 10:01 | 24.07936 | 59.52255 | 34841 ft | 509 kts | 114° |
| 2026-04-26 10:01 | 24.04806 | 59.59188 | 34834 ft | 508 kts | 114° |
| 2026-04-26 10:02 | 24.01671 | 59.66126 | 34848 ft | 507 kts | 115° |
| 2026-04-26 10:02 | 23.98533 | 59.73036 | 34849 ft | 507 kts | 115° |
| 2026-04-26 10:03 | 23.95410 | 59.79929 | 34846 ft | 506 kts | 115° |
| 2026-04-26 10:03 | 23.92280 | 59.86818 | 34831 ft | 506 kts | 115° |
| 2026-04-26 10:04 | 23.89151 | 59.93694 | 34851 ft | 504 kts | 115° |
| 2026-04-26 10:04 | 23.86034 | 60.00546 | 34853 ft | 503 kts | 115° |
| 2026-04-26 10:05 | 23.82934 | 60.07338 | 34840 ft | 502 kts | 115° |
| 2026-04-26 10:05 | 23.79814 | 60.14156 | 34841 ft | 501 kts | 115° |
| 2026-04-26 10:06 | 23.76703 | 60.20957 | 34844 ft | 501 kts | 115° |
| 2026-04-26 10:06 | 23.73587 | 60.27758 | 34855 ft | 500 kts | 115° |
| 2026-04-26 10:07 | 23.70471 | 60.34541 | 34847 ft | 499 kts | 115° |
| 2026-04-26 10:07 | 23.67366 | 60.41304 | 34841 ft | 498 kts | 115° |
| 2026-04-26 10:08 | 23.64255 | 60.48062 | 34855 ft | 498 kts | 116° |
| 2026-04-26 10:08 | 23.61152 | 60.54805 | 34844 ft | 497 kts | 116° |
| 2026-04-26 10:09 | 23.58579 | 60.60393 | 34858 ft | 496 kts | 116° |
| 2026-04-26 10:09 | 23.55470 | 60.67106 | 34843 ft | 495 kts | 116° |
| 2026-04-26 10:10 | 23.51861 | 60.74895 | 34833 ft | 495 kts | 115° |
| 2026-04-26 10:10 | 23.49265 | 60.80510 | 34837 ft | 495 kts | 115° |
| 2026-04-26 10:11 | 23.46159 | 60.87217 | 34839 ft | 495 kts | 115° |
| 2026-04-26 10:11 | 23.43064 | 60.93865 | 34835 ft | 495 kts | 115° |
| 2026-04-26 10:12 | 23.39951 | 61.00553 | 34837 ft | 495 kts | 115° |
| 2026-04-26 10:12 | 23.36845 | 61.07242 | 34840 ft | 495 kts | 116° |
| 2026-04-26 10:13 | 23.33728 | 61.13927 | 34841 ft | 494 kts | 115° |
| 2026-04-26 10:13 | 23.31521 | 61.20930 | 34835 ft | 488 kts | 97° |
| 2026-04-26 10:14 | 23.30795 | 61.28199 | 34836 ft | 486 kts | 93° |
| 2026-04-26 10:14 | 23.30154 | 61.35514 | 34841 ft | 485 kts | 93° |
| 2026-04-26 10:15 | 23.29503 | 61.42823 | 34845 ft | 484 kts | 93° |
| 2026-04-26 10:15 | 23.28841 | 61.50122 | 34850 ft | 484 kts | 93° |
| 2026-04-26 10:16 | 23.28180 | 61.57403 | 34844 ft | 483 kts | 93° |
| 2026-04-26 10:16 | 23.27522 | 61.64638 | 34837 ft | 483 kts | 93° |
| 2026-04-26 10:17 | 23.26871 | 61.71907 | 34837 ft | 483 kts | 93° |
| 2026-04-26 10:17 | 23.26210 | 61.79178 | 34836 ft | 483 kts | 93° |
| 2026-04-26 10:18 | 23.25545 | 61.86444 | 34840 ft | 483 kts | 93° |
| 2026-04-26 10:18 | 23.24878 | 61.93718 | 34835 ft | 482 kts | 94° |
| 2026-04-26 10:19 | 23.24204 | 62.00930 | 34841 ft | 482 kts | 94° |
| 2026-04-26 10:19 | 23.23531 | 62.08179 | 34837 ft | 481 kts | 94° |
| 2026-04-26 10:20 | 23.22855 | 62.15431 | 34836 ft | 481 kts | 94° |
| 2026-04-26 10:20 | 23.22175 | 62.22674 | 34845 ft | 481 kts | 94° |
| 2026-04-26 10:21 | 23.21489 | 62.29852 | 34840 ft | 480 kts | 94° |
| 2026-04-26 10:21 | 23.20807 | 62.37077 | 34847 ft | 480 kts | 94° |
| 2026-04-26 10:22 | 23.20123 | 62.44308 | 34836 ft | 480 kts | 94° |
| 2026-04-26 10:22 | 23.19428 | 62.51518 | 34835 ft | 480 kts | 94° |
| 2026-04-26 10:23 | 23.18729 | 62.58738 | 34829 ft | 480 kts | 94° |
| 2026-04-26 10:23 | 23.18031 | 62.65971 | 34825 ft | 481 kts | 94° |
| 2026-04-26 10:24 | 23.17327 | 62.73158 | 34826 ft | 482 kts | 94° |
| 2026-04-26 10:24 | 23.16611 | 62.80409 | 34823 ft | 482 kts | 94° |
| 2026-04-26 10:25 | 23.15905 | 62.87652 | 34828 ft | 482 kts | 94° |
| 2026-04-26 10:25 | 23.15190 | 62.94899 | 34829 ft | 482 kts | 94° |
| 2026-04-26 10:26 | 23.14461 | 63.02148 | 34839 ft | 482 kts | 94° |
| 2026-04-26 10:26 | 23.13736 | 63.09383 | 34841 ft | 481 kts | 94° |
| 2026-04-26 10:27 | 23.13019 | 63.16606 | 34843 ft | 481 kts | 94° |
| 2026-04-26 10:27 | 23.12290 | 63.23827 | 34840 ft | 481 kts | 94° |
| 2026-04-26 10:28 | 23.11572 | 63.31009 | 34839 ft | 481 kts | 94° |
| 2026-04-26 10:28 | 23.10843 | 63.38231 | 34840 ft | 481 kts | 94° |
| 2026-04-26 10:29 | 23.10098 | 63.45445 | 34840 ft | 480 kts | 94° |
| 2026-04-26 10:29 | 23.09353 | 63.52649 | 34843 ft | 480 kts | 94° |
| 2026-04-26 10:30 | 23.08621 | 63.59844 | 34841 ft | 479 kts | 94° |
| 2026-04-26 10:30 | 23.07883 | 63.67034 | 34840 ft | 479 kts | 94° |
| 2026-04-26 10:31 | 23.07135 | 63.74230 | 34845 ft | 479 kts | 95° |
| 2026-04-26 10:31 | 23.06375 | 63.81413 | 34848 ft | 478 kts | 95° |
| 2026-04-26 10:32 | 23.05632 | 63.88535 | 34849 ft | 477 kts | 95° |
| 2026-04-26 10:32 | 23.04901 | 63.95698 | 34846 ft | 477 kts | 95° |
| 2026-04-26 10:33 | 23.04179 | 64.02865 | 34842 ft | 477 kts | 95° |
| 2026-04-26 10:33 | 23.03459 | 64.10021 | 34820 ft | 478 kts | 95° |
| 2026-04-26 10:34 | 23.02722 | 64.17217 | 34795 ft | 481 kts | 95° |
| 2026-04-26 10:34 | 23.01974 | 64.24454 | 34802 ft | 484 kts | 95° |
| 2026-04-26 10:35 | 23.01215 | 64.31727 | 34806 ft | 485 kts | 95° |
| 2026-04-26 10:35 | 23.00453 | 64.39014 | 34819 ft | 486 kts | 95° |
| 2026-04-26 10:36 | 22.99694 | 64.46311 | 34824 ft | 486 kts | 95° |
| 2026-04-26 10:36 | 22.98928 | 64.53608 | 34830 ft | 487 kts | 95° |
| 2026-04-26 10:37 | 22.98156 | 64.60907 | 34832 ft | 487 kts | 95° |
| 2026-04-26 10:37 | 22.97387 | 64.68210 | 34834 ft | 487 kts | 95° |
| 2026-04-26 10:38 | 22.96618 | 64.75466 | 34836 ft | 487 kts | 95° |
| 2026-04-26 10:38 | 22.95846 | 64.82762 | 34835 ft | 487 kts | 92° |
| 2026-04-26 10:39 | 22.95807 | 64.90096 | 34836 ft | 485 kts | 88° |
| 2026-04-26 10:39 | 22.95857 | 64.97417 | 34839 ft | 485 kts | 88° |
| 2026-04-26 10:40 | 22.95905 | 65.04756 | 34840 ft | 485 kts | 88° |
| 2026-04-26 10:40 | 22.95943 | 65.12043 | 34840 ft | 485 kts | 88° |
| 2026-04-26 10:41 | 22.95971 | 65.19365 | 34843 ft | 485 kts | 88° |
| 2026-04-26 10:41 | 22.95999 | 65.26682 | 34839 ft | 485 kts | 88° |
| 2026-04-26 10:42 | 22.96032 | 65.33999 | 34842 ft | 485 kts | 89° |
| 2026-04-26 10:42 | 22.96057 | 65.41325 | 34838 ft | 485 kts | 89° |
| 2026-04-26 10:43 | 22.96078 | 65.48638 | 34838 ft | 485 kts | 89° |
| 2026-04-26 10:43 | 22.96093 | 65.55960 | 34835 ft | 485 kts | 89° |
| 2026-04-26 10:44 | 22.96102 | 65.63270 | 34837 ft | 485 kts | 89° |
| 2026-04-26 10:44 | 22.96112 | 65.70587 | 34837 ft | 485 kts | 89° |
| 2026-04-26 10:45 | 22.96128 | 65.77898 | 34837 ft | 484 kts | 89° |
| 2026-04-26 10:45 | 22.96130 | 65.85157 | 34836 ft | 484 kts | 89° |
| 2026-04-26 10:46 | 22.96126 | 65.92470 | 34829 ft | 484 kts | 89° |
| 2026-04-26 10:46 | 22.96123 | 65.99782 | 34835 ft | 484 kts | 89° |
| 2026-04-26 10:47 | 22.96121 | 66.07089 | 34839 ft | 484 kts | 89° |
| 2026-04-26 10:47 | 22.96110 | 66.14391 | 34831 ft | 484 kts | 89° |
| 2026-04-26 10:48 | 22.96105 | 66.21685 | 34831 ft | 483 kts | 89° |
| 2026-04-26 10:48 | 22.96088 | 66.28983 | 34832 ft | 483 kts | 89° |
| 2026-04-26 10:49 | 22.96057 | 66.36241 | 34826 ft | 484 kts | 89° |
| 2026-04-26 10:49 | 22.96029 | 66.43556 | 34824 ft | 484 kts | 89° |
| 2026-04-26 10:50 | 22.96008 | 66.49620 | 34825 ft | 484 kts | 89° |
| 2026-04-26 10:50 | 22.95986 | 66.58160 | 34824 ft | 484 kts | 89° |
| 2026-04-26 10:51 | 22.95930 | 66.69120 | 34820 ft | 484 kts | 89° |
| 2026-04-26 10:52 | 22.95891 | 66.76378 | 34824 ft | 484 kts | 89° |
| 2026-04-26 10:52 | 22.95851 | 66.83694 | 34820 ft | 484 kts | 89° |
| 2026-04-26 10:53 | 22.95808 | 66.90994 | 34821 ft | 484 kts | 90° |
| 2026-04-26 10:53 | 22.95759 | 66.98304 | 34822 ft | 484 kts | 89° |
| 2026-04-26 10:54 | 22.95780 | 67.09267 | 34822 ft | 484 kts | 88° |
| 2026-04-26 10:54 | 22.95824 | 67.16512 | 34822 ft | 483 kts | 89° |
| 2026-04-26 10:55 | 22.95839 | 67.23805 | 34824 ft | 482 kts | 89° |
| 2026-04-26 10:55 | 22.95835 | 67.29854 | 34823 ft | 482 kts | 89° |
| 2026-04-26 10:56 | 22.95831 | 67.37134 | 34817 ft | 482 kts | 89° |
| 2026-04-26 10:56 | 22.95831 | 67.44413 | 34812 ft | 482 kts | 89° |
| 2026-04-26 10:57 | 22.95833 | 67.51689 | 34819 ft | 482 kts | 89° |
| 2026-04-26 10:57 | 22.95828 | 67.58960 | 34817 ft | 482 kts | 89° |
| 2026-04-26 10:58 | 22.95815 | 67.66230 | 34811 ft | 482 kts | 89° |
| 2026-04-26 10:58 | 22.95805 | 67.73457 | 34811 ft | 482 kts | 89° |
| 2026-04-26 10:59 | 22.95792 | 67.80756 | 34810 ft | 482 kts | 89° |
| 2026-04-26 10:59 | 22.95768 | 67.88029 | 34807 ft | 482 kts | 89° |
| 2026-04-26 11:00 | 22.95764 | 67.95254 | 34802 ft | 482 kts | 89° |
| 2026-04-26 11:00 | 22.95778 | 68.02522 | 34803 ft | 481 kts | 88° |
| 2026-04-26 11:01 | 22.95789 | 68.09798 | 34803 ft | 481 kts | 89° |
| 2026-04-26 11:01 | 22.95793 | 68.17058 | 34801 ft | 481 kts | 89° |
| 2026-04-26 11:02 | 22.95790 | 68.24337 | 34822 ft | 481 kts | 89° |
| 2026-04-26 11:02 | 22.95780 | 68.31538 | 34822 ft | 480 kts | 89° |
| 2026-04-26 11:03 | 22.95758 | 68.38775 | 34819 ft | 479 kts | 90° |
| 2026-04-26 11:03 | 22.95462 | 68.45987 | 34815 ft | 479 kts | 92° |
| 2026-04-26 11:04 | 22.94956 | 68.53185 | 34814 ft | 478 kts | 93° |
| 2026-04-26 11:04 | 22.94466 | 68.60382 | 34814 ft | 478 kts | 93° |
| 2026-04-26 11:05 | 22.94040 | 68.67586 | 34811 ft | 478 kts | 92° |
| 2026-04-26 11:05 | 22.93648 | 68.74730 | 34804 ft | 477 kts | 92° |
| 2026-04-26 11:06 | 22.93231 | 68.81962 | 34803 ft | 477 kts | 92° |
| 2026-04-26 11:06 | 22.92792 | 68.89105 | 34794 ft | 477 kts | 93° |
| 2026-04-26 11:07 | 22.92355 | 68.96305 | 34787 ft | 478 kts | 93° |
| 2026-04-26 11:07 | 22.91919 | 69.03514 | 34776 ft | 480 kts | 92° |
| 2026-04-26 11:08 | 22.91475 | 69.10751 | 34773 ft | 480 kts | 93° |
| 2026-04-26 11:08 | 22.91041 | 69.17937 | 34776 ft | 481 kts | 92° |
| 2026-04-26 11:09 | 22.90595 | 69.25184 | 34777 ft | 481 kts | 93° |
| 2026-04-26 11:09 | 22.90136 | 69.32428 | 34782 ft | 482 kts | 93° |
| 2026-04-26 11:10 | 22.89678 | 69.39682 | 34779 ft | 482 kts | 93° |
| 2026-04-26 11:10 | 22.89219 | 69.46940 | 34781 ft | 482 kts | 93° |
| 2026-04-26 11:11 | 22.88757 | 69.54198 | 34787 ft | 482 kts | 93° |
| 2026-04-26 11:11 | 22.88293 | 69.61409 | 34792 ft | 482 kts | 93° |
| 2026-04-26 11:12 | 22.87820 | 69.68661 | 34790 ft | 481 kts | 93° |
| 2026-04-26 11:12 | 22.87370 | 69.75906 | 34790 ft | 481 kts | 93° |
| 2026-04-26 11:13 | 22.86964 | 69.83151 | 34789 ft | 482 kts | 92° |
| 2026-04-26 11:13 | 22.86561 | 69.90408 | 34791 ft | 482 kts | 93° |
| 2026-04-26 11:14 | 22.86132 | 69.97653 | 34793 ft | 481 kts | 93° |
| 2026-04-26 11:14 | 22.85685 | 70.04897 | 34791 ft | 481 kts | 93° |
| 2026-04-26 11:15 | 22.85244 | 70.12141 | 34794 ft | 481 kts | 92° |
| 2026-04-26 11:15 | 22.84814 | 70.19337 | 34801 ft | 481 kts | 93° |
| 2026-04-26 11:16 | 22.84377 | 70.26563 | 34804 ft | 480 kts | 92° |
| 2026-04-26 11:16 | 22.83942 | 70.33785 | 34808 ft | 479 kts | 92° |
| 2026-04-26 11:17 | 22.83513 | 70.40996 | 34809 ft | 479 kts | 93° |
| 2026-04-26 11:17 | 22.83068 | 70.48210 | 34810 ft | 479 kts | 93° |
| 2026-04-26 11:18 | 22.82614 | 70.55428 | 34812 ft | 480 kts | 93° |
| 2026-04-26 11:18 | 22.82151 | 70.62660 | 34797 ft | 481 kts | 93° |
| 2026-04-26 11:19 | 22.81697 | 70.69895 | 34791 ft | 481 kts | 93° |
| 2026-04-26 11:19 | 22.81238 | 70.77133 | 34788 ft | 481 kts | 93° |
| 2026-04-26 11:20 | 22.80970 | 70.83147 | 34791 ft | 481 kts | 86° |
| 2026-04-26 11:20 | 22.82065 | 70.91473 | 34793 ft | 480 kts | 79° |
| 2026-04-26 11:21 | 22.83145 | 70.98615 | 34794 ft | 480 kts | 80° |
| 2026-04-26 11:21 | 22.84208 | 71.05768 | 34780 ft | 480 kts | 80° |
| 2026-04-26 11:22 | 22.85268 | 71.12921 | 34784 ft | 481 kts | 80° |
| 2026-04-26 11:22 | 22.86335 | 71.20072 | 34774 ft | 480 kts | 80° |
| 2026-04-26 11:23 | 22.87399 | 71.27224 | 34776 ft | 481 kts | 80° |
| 2026-04-26 11:23 | 22.88461 | 71.34383 | 34766 ft | 481 kts | 80° |
| 2026-04-26 11:24 | 22.89518 | 71.41545 | 34761 ft | 481 kts | 80° |
| 2026-04-26 11:24 | 22.90566 | 71.48701 | 34761 ft | 481 kts | 80° |
| 2026-04-26 11:25 | 22.91606 | 71.55818 | 34768 ft | 481 kts | 80° |
| 2026-04-26 11:25 | 22.92655 | 71.62982 | 34753 ft | 481 kts | 80° |
| 2026-04-26 11:26 | 22.93696 | 71.70146 | 34751 ft | 481 kts | 80° |
| 2026-04-26 11:26 | 22.94732 | 71.77323 | 34748 ft | 481 kts | 81° |
| 2026-04-26 11:27 | 22.95766 | 71.84495 | 34742 ft | 481 kts | 80° |
| 2026-04-26 11:27 | 22.96807 | 71.91684 | 34743 ft | 481 kts | 81° |
| 2026-04-26 11:28 | 22.97844 | 71.98866 | 34733 ft | 481 kts | 81° |
| 2026-04-26 11:28 | 22.98870 | 72.06043 | 34732 ft | 482 kts | 80° |
| 2026-04-26 11:29 | 22.99885 | 72.13231 | 34727 ft | 482 kts | 81° |
| 2026-04-26 11:29 | 23.00907 | 72.20424 | 34729 ft | 482 kts | 80° |
| 2026-04-26 11:30 | 23.01762 | 72.26405 | 34726 ft | 482 kts | 81° |
| 2026-04-26 11:30 | 23.02953 | 72.34830 | 34715 ft | 483 kts | 81° |
| 2026-04-26 11:31 | 23.03958 | 72.41997 | 34706 ft | 483 kts | 81° |
| 2026-04-26 11:31 | 23.04966 | 72.49207 | 34701 ft | 483 kts | 81° |
| 2026-04-26 11:32 | 23.05970 | 72.56422 | 34700 ft | 483 kts | 81° |
| 2026-04-26 11:32 | 23.06908 | 72.63650 | 34693 ft | 484 kts | 85° |
| 2026-04-26 11:33 | 23.07324 | 72.70948 | 34690 ft | 484 kts | 86° |
| 2026-04-26 11:33 | 23.07742 | 72.78250 | 34696 ft | 484 kts | 86° |
| 2026-04-26 11:34 | 23.08152 | 72.85558 | 34700 ft | 485 kts | 86° |
| 2026-04-26 11:34 | 23.08555 | 72.92826 | 34710 ft | 485 kts | 86° |
| 2026-04-26 11:35 | 23.08950 | 73.00148 | 34714 ft | 485 kts | 86° |
| 2026-04-26 11:35 | 23.09276 | 73.06245 | 34715 ft | 486 kts | 86° |
| 2026-04-26 11:36 | 23.09741 | 73.14766 | 34723 ft | 486 kts | 86° |
| 2026-04-26 11:36 | 23.10134 | 73.22100 | 34722 ft | 486 kts | 86° |
| 2026-04-26 11:37 | 23.10517 | 73.29434 | 34722 ft | 486 kts | 86° |
| 2026-04-26 11:37 | 23.10895 | 73.36764 | 34718 ft | 486 kts | 86° |
| 2026-04-26 11:38 | 23.11277 | 73.44102 | 34725 ft | 486 kts | 86° |
| 2026-04-26 11:38 | 23.11658 | 73.51440 | 34730 ft | 486 kts | 86° |
| 2026-04-26 11:39 | 23.11972 | 73.57547 | 34732 ft | 486 kts | 86° |
| 2026-04-26 11:39 | 23.12349 | 73.64887 | 34731 ft | 487 kts | 86° |
| 2026-04-26 11:40 | 23.12772 | 73.73422 | 34735 ft | 487 kts | 86° |
| 2026-04-26 11:40 | 23.13071 | 73.79582 | 34747 ft | 487 kts | 86° |
| 2026-04-26 11:42 | 23.14507 | 74.08973 | 34761 ft | 488 kts | 86° |
| 2026-04-26 11:43 | 23.14852 | 74.16353 | 34758 ft | 489 kts | 87° |
| 2026-04-26 11:43 | 23.15193 | 74.23736 | 34767 ft | 489 kts | 87° |
| 2026-04-26 11:44 | 23.15538 | 74.31125 | 34767 ft | 488 kts | 86° |
| 2026-04-26 11:44 | 23.15833 | 74.38396 | 34784 ft | 479 kts | 88° |
| 2026-04-26 11:45 | 23.15971 | 74.45566 | 34779 ft | 478 kts | 89° |
| 2026-04-26 11:45 | 23.16066 | 74.52826 | 34789 ft | 477 kts | 89° |
| 2026-04-26 11:46 | 23.16190 | 74.59998 | 34786 ft | 477 kts | 88° |
| 2026-04-26 11:46 | 23.16339 | 74.67213 | 34797 ft | 477 kts | 89° |
| 2026-04-26 11:47 | 23.16483 | 74.74432 | 34793 ft | 477 kts | 89° |
| 2026-04-26 11:47 | 23.16618 | 74.81644 | 34803 ft | 477 kts | 89° |
| 2026-04-26 11:48 | 23.16749 | 74.88855 | 34803 ft | 477 kts | 89° |
| 2026-04-26 11:48 | 23.16879 | 74.96065 | 34805 ft | 477 kts | 89° |
| 2026-04-26 11:49 | 23.17008 | 75.03277 | 34804 ft | 477 kts | 89° |
| 2026-04-26 11:49 | 23.17147 | 75.10489 | 34811 ft | 477 kts | 89° |
| 2026-04-26 11:50 | 23.17269 | 75.17702 | 34804 ft | 477 kts | 89° |
| 2026-04-26 11:50 | 23.17381 | 75.24914 | 34815 ft | 477 kts | 89° |
| 2026-04-26 11:51 | 23.17486 | 75.32131 | 34819 ft | 478 kts | 89° |
| 2026-04-26 11:51 | 23.17598 | 75.39345 | 34818 ft | 477 kts | 89° |
| 2026-04-26 11:52 | 23.17707 | 75.46555 | 34825 ft | 477 kts | 89° |
| 2026-04-26 11:52 | 23.17811 | 75.53726 | 34826 ft | 477 kts | 89° |
| 2026-04-26 11:53 | 23.17912 | 75.60939 | 34826 ft | 477 kts | 89° |
| 2026-04-26 11:54 | 23.18057 | 75.71766 | 34830 ft | 477 kts | 89° |
| 2026-04-26 11:54 | 23.18150 | 75.78965 | 34824 ft | 477 kts | 90° |
| 2026-04-26 11:55 | 23.18239 | 75.86176 | 34821 ft | 477 kts | 90° |
| 2026-04-26 11:55 | 23.18324 | 75.93336 | 34820 ft | 477 kts | 90° |
| 2026-04-26 11:56 | 23.18416 | 76.00555 | 34823 ft | 477 kts | 89° |
| 2026-04-26 11:56 | 23.18830 | 76.07756 | 34826 ft | 478 kts | 85° |
| 2026-04-26 11:57 | 23.19505 | 76.14940 | 34830 ft | 478 kts | 84° |
| 2026-04-26 11:57 | 23.20164 | 76.22131 | 34822 ft | 478 kts | 85° |
| 2026-04-26 11:58 | 23.20720 | 76.29340 | 34819 ft | 478 kts | 86° |
| 2026-04-26 11:58 | 23.21240 | 76.36553 | 34820 ft | 479 kts | 86° |
| 2026-04-26 11:59 | 23.21775 | 76.43765 | 34821 ft | 479 kts | 85° |
| 2026-04-26 11:59 | 23.22321 | 76.50931 | 34824 ft | 479 kts | 85° |
| 2026-04-26 12:00 | 23.22868 | 76.58151 | 34823 ft | 479 kts | 85° |
| 2026-04-26 12:00 | 23.23410 | 76.65374 | 34819 ft | 479 kts | 85° |
| 2026-04-26 12:01 | 23.23940 | 76.72605 | 34820 ft | 479 kts | 85° |
| 2026-04-26 12:01 | 23.24470 | 76.79833 | 34817 ft | 479 kts | 85° |
| 2026-04-26 12:02 | 23.24998 | 76.87018 | 34821 ft | 479 kts | 85° |
| 2026-04-26 12:02 | 23.25521 | 76.94252 | 34794 ft | 481 kts | 85° |
| 2026-04-26 12:03 | 23.26051 | 77.01509 | 34785 ft | 482 kts | 85° |
| 2026-04-26 12:03 | 23.26579 | 77.08784 | 34778 ft | 483 kts | 85° |
| 2026-04-26 12:04 | 23.27101 | 77.16082 | 34771 ft | 483 kts | 85° |
| 2026-04-26 12:04 | 23.27616 | 77.23370 | 34777 ft | 484 kts | 85° |
| 2026-04-26 12:05 | 23.28328 | 77.30655 | 34762 ft | 484 kts | 77° |
| 2026-04-26 12:05 | 23.30690 | 77.37471 | 34760 ft | 482 kts | 58° |
| 2026-04-26 12:06 | 23.34362 | 77.43584 | 34763 ft | 482 kts | 55° |
| 2026-04-26 12:06 | 23.38038 | 77.49641 | 34766 ft | 483 kts | 55° |
| 2026-04-26 12:07 | 23.41729 | 77.55752 | 34766 ft | 483 kts | 55° |
| 2026-04-26 12:07 | 23.45431 | 77.61878 | 34762 ft | 484 kts | 55° |
| 2026-04-26 12:08 | 23.49147 | 77.68013 | 34759 ft | 485 kts | 55° |
| 2026-04-26 12:08 | 23.52871 | 77.74171 | 34758 ft | 487 kts | 55° |
| 2026-04-26 12:09 | 23.56587 | 77.80344 | 34757 ft | 487 kts | 55° |
| 2026-04-26 12:09 | 23.60289 | 77.86502 | 34778 ft | 487 kts | 55° |
| 2026-04-26 12:10 | 23.64003 | 77.92673 | 34795 ft | 486 kts | 55° |
| 2026-04-26 12:10 | 23.67699 | 77.98832 | 34794 ft | 485 kts | 55° |
| 2026-04-26 12:11 | 23.71399 | 78.05001 | 34787 ft | 485 kts | 55° |
| 2026-04-26 12:11 | 23.75071 | 78.11129 | 34782 ft | 485 kts | 55° |
| 2026-04-26 12:12 | 23.78762 | 78.17292 | 34781 ft | 485 kts | 55° |
| 2026-04-26 12:12 | 23.82449 | 78.23455 | 34778 ft | 485 kts | 55° |
| 2026-04-26 12:13 | 23.86132 | 78.29631 | 34775 ft | 485 kts | 55° |
| 2026-04-26 12:13 | 23.89815 | 78.35817 | 34773 ft | 485 kts | 55° |
| 2026-04-26 12:14 | 23.93496 | 78.41996 | 34769 ft | 485 kts | 55° |
| 2026-04-26 12:14 | 23.97154 | 78.48132 | 34787 ft | 484 kts | 55° |
| 2026-04-26 12:15 | 24.00812 | 78.54299 | 34789 ft | 483 kts | 56° |
| 2026-04-26 12:15 | 24.04446 | 78.60477 | 34788 ft | 482 kts | 56° |
| 2026-04-26 12:16 | 24.08059 | 78.66659 | 34776 ft | 481 kts | 56° |
| 2026-04-26 12:16 | 24.11674 | 78.72817 | 35044 ft | 481 kts | 56° |
| 2026-04-26 12:16 | 24.13489 | 78.75907 | 35284 ft | 481 kts | 56° |
| 2026-04-26 12:17 | 24.15305 | 78.79000 | 35507 ft | 481 kts | 56° |
| 2026-04-26 12:17 | 24.17114 | 78.82081 | 35714 ft | 481 kts | 56° |
| 2026-04-26 12:17 | 24.18899 | 78.85128 | 35929 ft | 481 kts | 56° |
| 2026-04-26 12:17 | 24.20709 | 78.88224 | 36136 ft | 481 kts | 56° |
| 2026-04-26 12:18 | 24.22514 | 78.91317 | 36339 ft | 481 kts | 56° |
| 2026-04-26 12:18 | 24.24317 | 78.94405 | 36541 ft | 481 kts | 56° |
| 2026-04-26 12:18 | 24.26124 | 78.97499 | 36718 ft | 482 kts | 56° |
| 2026-04-26 12:19 | 24.29735 | 79.03694 | 36747 ft | 482 kts | 56° |
| 2026-04-26 12:19 | 24.33326 | 79.09864 | 36745 ft | 483 kts | 56° |
| 2026-04-26 12:20 | 24.36946 | 79.16085 | 36739 ft | 484 kts | 56° |
| 2026-04-26 12:20 | 24.40566 | 79.22321 | 36736 ft | 484 kts | 56° |
| 2026-04-26 12:21 | 24.44181 | 79.28561 | 36733 ft | 484 kts | 56° |
| 2026-04-26 12:21 | 24.47774 | 79.34772 | 36735 ft | 484 kts | 56° |
| 2026-04-26 12:22 | 24.51387 | 79.41016 | 36739 ft | 484 kts | 56° |
| 2026-04-26 12:22 | 24.55001 | 79.47270 | 36733 ft | 484 kts | 55° |
| 2026-04-26 12:23 | 24.58615 | 79.53529 | 36730 ft | 485 kts | 56° |
| 2026-04-26 12:23 | 24.62217 | 79.59793 | 36723 ft | 485 kts | 56° |
| 2026-04-26 12:24 | 24.65825 | 79.66063 | 36724 ft | 485 kts | 56° |
| 2026-04-26 12:24 | 24.69410 | 79.72294 | 36705 ft | 485 kts | 56° |
| 2026-04-26 12:25 | 24.74807 | 79.81702 | 36700 ft | 485 kts | 56° |
| 2026-04-26 12:25 | 24.78406 | 79.87987 | 36690 ft | 485 kts | 56° |
| 2026-04-26 12:26 | 24.81073 | 79.94753 | 36684 ft | 488 kts | 75° |
| 2026-04-26 12:26 | 24.82699 | 80.02008 | 36681 ft | 488 kts | 75° |
| 2026-04-26 12:27 | 24.84336 | 80.09269 | 36684 ft | 489 kts | 75° |
| 2026-04-26 12:27 | 24.85970 | 80.16535 | 36689 ft | 489 kts | 75° |
| 2026-04-26 12:28 | 24.87321 | 80.22585 | 36678 ft | 490 kts | 75° |
| 2026-04-26 12:28 | 24.88954 | 80.29892 | 36670 ft | 491 kts | 75° |
| 2026-04-26 12:29 | 24.90582 | 80.37210 | 36667 ft | 492 kts | 75° |
| 2026-04-26 12:30 | 24.93004 | 80.48200 | 36668 ft | 492 kts | 75° |
| 2026-04-26 12:30 | 24.94625 | 80.55530 | 36667 ft | 492 kts | 75° |
| 2026-04-26 12:31 | 24.97062 | 80.66548 | 36656 ft | 493 kts | 75° |
| 2026-04-26 12:31 | 24.98402 | 80.72657 | 36653 ft | 494 kts | 75° |
| 2026-04-26 12:32 | 25.00270 | 80.81224 | 36647 ft | 494 kts | 75° |
| 2026-04-26 12:33 | 25.02678 | 80.92291 | 36662 ft | 495 kts | 75° |
| 2026-04-26 12:33 | 25.04321 | 80.99671 | 36664 ft | 495 kts | 74° |
| 2026-04-26 12:34 | 25.05978 | 81.07060 | 36657 ft | 496 kts | 74° |
| 2026-04-26 12:34 | 25.07629 | 81.14446 | 36656 ft | 496 kts | 74° |
| 2026-04-26 12:35 | 25.09261 | 81.21800 | 36662 ft | 496 kts | 74° |
| 2026-04-26 12:35 | 25.10889 | 81.29205 | 36670 ft | 496 kts | 74° |
| 2026-04-26 12:36 | 25.12518 | 81.36625 | 36658 ft | 497 kts | 74° |
| 2026-04-26 12:36 | 25.14146 | 81.44045 | 36651 ft | 498 kts | 74° |
| 2026-04-26 12:37 | 25.15816 | 81.51466 | 36637 ft | 498 kts | 73° |
| 2026-04-26 12:37 | 25.17533 | 81.58883 | 36641 ft | 498 kts | 73° |
| 2026-04-26 12:38 | 25.19242 | 81.66260 | 36655 ft | 499 kts | 73° |
| 2026-04-26 12:38 | 25.20942 | 81.73689 | 36648 ft | 499 kts | 73° |
| 2026-04-26 12:39 | 25.22630 | 81.81128 | 36634 ft | 499 kts | 74° |
| 2026-04-26 12:39 | 25.24305 | 81.88569 | 36637 ft | 499 kts | 74° |
| 2026-04-26 12:40 | 25.25989 | 81.96017 | 36635 ft | 499 kts | 74° |
| 2026-04-26 12:40 | 25.27677 | 82.03467 | 36639 ft | 500 kts | 74° |
| 2026-04-26 12:41 | 25.29357 | 82.10929 | 36637 ft | 500 kts | 74° |
| 2026-04-26 12:41 | 25.31028 | 82.18349 | 36636 ft | 501 kts | 74° |
| 2026-04-26 12:42 | 25.32703 | 82.25821 | 36636 ft | 501 kts | 74° |
| 2026-04-26 12:42 | 25.34328 | 82.33315 | 36640 ft | 501 kts | 75° |
| 2026-04-26 12:43 | 25.35892 | 82.40815 | 36622 ft | 501 kts | 75° |
| 2026-04-26 12:43 | 25.37465 | 82.48324 | 36620 ft | 501 kts | 75° |
| 2026-04-26 12:44 | 25.39057 | 82.55811 | 36610 ft | 501 kts | 75° |
| 2026-04-26 12:44 | 25.40655 | 82.63323 | 36612 ft | 501 kts | 75° |
| 2026-04-26 12:45 | 25.42240 | 82.70829 | 36614 ft | 501 kts | 75° |
| 2026-04-26 12:45 | 25.43825 | 82.78342 | 36617 ft | 501 kts | 75° |
| 2026-04-26 12:46 | 25.45346 | 82.85832 | 36616 ft | 503 kts | 79° |
| 2026-04-26 12:46 | 25.45958 | 82.93558 | 36622 ft | 504 kts | 84° |
| 2026-04-26 12:47 | 25.46499 | 83.01299 | 36617 ft | 504 kts | 84° |
| 2026-04-26 12:47 | 25.47047 | 83.08999 | 36621 ft | 505 kts | 84° |
| 2026-04-26 12:48 | 25.47587 | 83.16754 | 36636 ft | 505 kts | 84° |
| 2026-04-26 12:48 | 25.48116 | 83.24504 | 36635 ft | 505 kts | 84° |
| 2026-04-26 12:49 | 25.48643 | 83.32250 | 36631 ft | 505 kts | 84° |
| 2026-04-26 12:49 | 25.49171 | 83.39998 | 36632 ft | 504 kts | 84° |
| 2026-04-26 12:50 | 25.49689 | 83.47746 | 36655 ft | 504 kts | 84° |
| 2026-04-26 12:50 | 25.50196 | 83.55503 | 36651 ft | 504 kts | 84° |
| 2026-04-26 12:51 | 25.50703 | 83.63198 | 36654 ft | 504 kts | 84° |
| 2026-04-26 12:51 | 25.51213 | 83.70953 | 36663 ft | 504 kts | 84° |
| 2026-04-26 12:52 | 25.51715 | 83.78700 | 36656 ft | 505 kts | 84° |
| 2026-04-26 12:52 | 25.52216 | 83.86457 | 36654 ft | 505 kts | 84° |
| 2026-04-26 12:53 | 25.52714 | 83.94221 | 36662 ft | 504 kts | 84° |
| 2026-04-26 12:53 | 25.53176 | 84.01962 | 36676 ft | 502 kts | 84° |
| 2026-04-26 12:54 | 25.53606 | 84.09618 | 36683 ft | 501 kts | 84° |
| 2026-04-26 12:54 | 25.54041 | 84.17300 | 36678 ft | 499 kts | 84° |
| 2026-04-26 12:55 | 25.54490 | 84.24980 | 36683 ft | 498 kts | 84° |
| 2026-04-26 12:55 | 25.54936 | 84.32639 | 36685 ft | 498 kts | 84° |
| 2026-04-26 12:56 | 25.55368 | 84.40291 | 36689 ft | 498 kts | 84° |
| 2026-04-26 12:56 | 25.55786 | 84.47949 | 36689 ft | 498 kts | 84° |
| 2026-04-26 12:57 | 25.56208 | 84.55598 | 36715 ft | 498 kts | 84° |
| 2026-04-26 12:57 | 25.56631 | 84.63247 | 36708 ft | 498 kts | 84° |
| 2026-04-26 12:58 | 25.57252 | 84.74682 | 36729 ft | 497 kts | 84° |
| 2026-04-26 12:58 | 25.57657 | 84.82320 | 36727 ft | 496 kts | 84° |
| 2026-04-26 12:59 | 25.58065 | 84.89958 | 36728 ft | 496 kts | 84° |
| 2026-04-26 12:59 | 25.58467 | 84.97578 | 36720 ft | 495 kts | 84° |
| 2026-04-26 13:00 | 25.58861 | 85.05199 | 36737 ft | 495 kts | 84° |
| 2026-04-26 13:00 | 25.59703 | 85.12748 | 36688 ft | 493 kts | 75° |
| 2026-04-26 13:01 | 25.61112 | 85.20194 | 36681 ft | 494 kts | 75° |
| 2026-04-26 13:01 | 25.62533 | 85.27659 | 36685 ft | 495 kts | 75° |
| 2026-04-26 13:02 | 25.63942 | 85.35094 | 36705 ft | 496 kts | 75° |
| 2026-04-26 13:02 | 25.65356 | 85.42635 | 36693 ft | 497 kts | 75° |
| 2026-04-26 13:03 | 25.66756 | 85.50145 | 36705 ft | 497 kts | 75° |
| 2026-04-26 13:03 | 25.68144 | 85.57603 | 36716 ft | 498 kts | 75° |
| 2026-04-26 13:04 | 25.69542 | 85.65130 | 36720 ft | 498 kts | 75° |
| 2026-04-26 13:04 | 25.70937 | 85.72683 | 36734 ft | 499 kts | 75° |
| 2026-04-26 13:05 | 25.72328 | 85.80231 | 36736 ft | 499 kts | 75° |
| 2026-04-26 13:05 | 25.73715 | 85.87774 | 36738 ft | 499 kts | 75° |
| 2026-04-26 13:06 | 25.75101 | 85.95315 | 36744 ft | 499 kts | 75° |
| 2026-04-26 13:06 | 25.76481 | 86.02855 | 36742 ft | 499 kts | 75° |
| 2026-04-26 13:07 | 25.77855 | 86.10357 | 36739 ft | 499 kts | 75° |
| 2026-04-26 13:07 | 25.79225 | 86.17898 | 36728 ft | 498 kts | 76° |
| 2026-04-26 13:08 | 25.80589 | 86.25417 | 36742 ft | 496 kts | 76° |
| 2026-04-26 13:08 | 25.81939 | 86.32923 | 36750 ft | 495 kts | 76° |
| 2026-04-26 13:09 | 25.83287 | 86.40403 | 36749 ft | 494 kts | 76° |
| 2026-04-26 13:09 | 25.84638 | 86.47875 | 36745 ft | 493 kts | 76° |
| 2026-04-26 13:10 | 25.85977 | 86.55300 | 36749 ft | 493 kts | 76° |
| 2026-04-26 13:10 | 25.87319 | 86.62763 | 36747 ft | 493 kts | 77° |
| 2026-04-26 13:11 | 25.88651 | 86.70239 | 36755 ft | 493 kts | 77° |
| 2026-04-26 13:11 | 25.89753 | 86.76462 | 36753 ft | 494 kts | 77° |
| 2026-04-26 13:12 | 25.91078 | 86.83950 | 36755 ft | 494 kts | 77° |
| 2026-04-26 13:12 | 25.92402 | 86.91430 | 36771 ft | 494 kts | 76° |
| 2026-04-26 13:13 | 25.93730 | 86.98914 | 36766 ft | 494 kts | 77° |
| 2026-04-26 13:13 | 25.95047 | 87.06409 | 36760 ft | 493 kts | 77° |
| 2026-04-26 13:14 | 25.96356 | 87.13895 | 36763 ft | 493 kts | 77° |
| 2026-04-26 13:14 | 25.97653 | 87.21333 | 36762 ft | 493 kts | 77° |
| 2026-04-26 13:15 | 25.98961 | 87.28817 | 36765 ft | 493 kts | 77° |
| 2026-04-26 13:15 | 26.00259 | 87.36311 | 36768 ft | 493 kts | 78° |
| 2026-04-26 13:16 | 26.01558 | 87.43800 | 36768 ft | 493 kts | 78° |
| 2026-04-26 13:16 | 26.02855 | 87.51296 | 36767 ft | 493 kts | 78° |
| 2026-04-26 13:17 | 26.04778 | 87.62488 | 36772 ft | 493 kts | 78° |
| 2026-04-26 13:18 | 26.05844 | 87.68759 | 36768 ft | 493 kts | 78° |
| 2026-04-26 13:19 | 26.08763 | 87.85672 | 36762 ft | 492 kts | 73° |
| 2026-04-26 13:19 | 26.11550 | 87.92541 | 36763 ft | 486 kts | 52° |
| 2026-04-26 13:20 | 26.16161 | 87.97911 | 36760 ft | 477 kts | 33° |
| 2026-04-26 13:20 | 26.21781 | 88.01755 | 36758 ft | 474 kts | 27° |
| 2026-04-26 13:21 | 26.27484 | 88.05477 | 36780 ft | 475 kts | 27° |
| 2026-04-26 13:21 | 26.33147 | 88.09179 | 36781 ft | 475 kts | 27° |
| 2026-04-26 13:22 | 26.38852 | 88.12912 | 36783 ft | 475 kts | 27° |
| 2026-04-26 13:22 | 26.44556 | 88.16653 | 36788 ft | 476 kts | 27° |
| 2026-04-26 13:23 | 26.50271 | 88.20404 | 36794 ft | 476 kts | 27° |
| 2026-04-26 13:23 | 26.55988 | 88.24161 | 36812 ft | 476 kts | 27° |
| 2026-04-26 13:24 | 26.61706 | 88.27916 | 36809 ft | 476 kts | 27° |
| 2026-04-26 13:24 | 26.67227 | 88.31942 | 36799 ft | 479 kts | 38° |
| 2026-04-26 13:25 | 26.71579 | 88.37608 | 36653 ft | 485 kts | 57° |
| 2026-04-26 13:25 | 26.73344 | 88.40823 | 36428 ft | 485 kts | 57° |
| 2026-04-26 13:25 | 26.75113 | 88.44049 | 35885 ft | 487 kts | 57° |
| 2026-04-26 13:25 | 26.76897 | 88.47304 | 34940 ft | 493 kts | 57° |
| 2026-04-26 13:26 | 26.78700 | 88.50598 | 34016 ft | 499 kts | 58° |
| 2026-04-26 13:26 | 26.80511 | 88.53911 | 33129 ft | 499 kts | 57° |
| 2026-04-26 13:26 | 26.82332 | 88.57242 | 31880 ft | 504 kts | 57° |
| 2026-04-26 13:26 | 26.84171 | 88.60606 | 30975 ft | 507 kts | 57° |
| 2026-04-26 13:27 | 26.86002 | 88.63962 | 30278 ft | 503 kts | 56° |
| 2026-04-26 13:27 | 26.87822 | 88.67300 | 29596 ft | 501 kts | 57° |
| 2026-04-26 13:27 | 26.89634 | 88.70627 | 28802 ft | 500 kts | 57° |
| 2026-04-26 13:27 | 26.91423 | 88.73911 | 28039 ft | 500 kts | 57° |
| 2026-04-26 13:28 | 26.93235 | 88.77245 | 27286 ft | 501 kts | 57° |
| 2026-04-26 13:28 | 26.95050 | 88.80583 | 26560 ft | 503 kts | 57° |
| 2026-04-26 13:28 | 26.96873 | 88.83933 | 25842 ft | 504 kts | 57° |
| 2026-04-26 13:28 | 26.98695 | 88.87292 | 25178 ft | 504 kts | 57° |
| 2026-04-26 13:29 | 27.00466 | 88.90685 | 24495 ft | 500 kts | 58° |
| 2026-04-26 13:29 | 27.01593 | 88.92920 | 24056 ft | 495 kts | 59° |
| 2026-04-26 13:29 | 27.03789 | 88.97404 | 23114 ft | 485 kts | 59° |
| 2026-04-26 13:29 | 27.05381 | 89.00694 | 22341 ft | 474 kts | 59° |
| 2026-04-26 13:30 | 27.06417 | 89.02827 | 21838 ft | 467 kts | 59° |
| 2026-04-26 13:30 | 27.07967 | 89.05986 | 21064 ft | 457 kts | 59° |
| 2026-04-26 13:30 | 27.09510 | 89.09097 | 19911 ft | 453 kts | 59° |
| 2026-04-26 13:30 | 27.11041 | 89.12164 | 19107 ft | 445 kts | 59° |
| 2026-04-26 13:31 | 27.12516 | 89.15115 | 18971 ft | 420 kts | 59° |
| 2026-04-26 13:31 | 27.14342 | 89.18780 | 18756 ft | 396 kts | 59° |
| 2026-04-26 13:31 | 27.15249 | 89.20602 | 18358 ft | 398 kts | 59° |
| 2026-04-26 13:31 | 27.16877 | 89.24304 | 17540 ft | 398 kts | 71° |
| 2026-04-26 13:32 | 27.17334 | 89.26321 | 17201 ft | 390 kts | 81° |
| 2026-04-26 13:32 | 27.17606 | 89.29306 | 16698 ft | 378 kts | 85° |
| 2026-04-26 13:32 | 27.17824 | 89.32171 | 16210 ft | 367 kts | 85° |
| 2026-04-26 13:32 | 27.18042 | 89.34986 | 15744 ft | 357 kts | 85° |
| 2026-04-26 13:33 | 27.18258 | 89.37738 | 15280 ft | 348 kts | 85° |
| 2026-04-26 13:33 | 27.18467 | 89.40406 | 14823 ft | 339 kts | 85° |
| 2026-04-26 13:33 | 27.18701 | 89.43007 | 14387 ft | 331 kts | 80° |
| 2026-04-26 13:33 | 27.19309 | 89.45470 | 13959 ft | 323 kts | 67° |
| 2026-04-26 13:34 | 27.20343 | 89.47675 | 13518 ft | 316 kts | 56° |
| 2026-04-26 13:34 | 27.21709 | 89.49564 | 13092 ft | 307 kts | 44° |
| 2026-04-26 13:34 | 27.23323 | 89.51079 | 12735 ft | 298 kts | 33° |
| 2026-04-26 13:34 | 27.24492 | 89.51864 | 12480 ft | 295 kts | 27° |
| 2026-04-26 13:35 | 27.26914 | 89.53297 | 11965 ft | 292 kts | 27° |
| 2026-04-26 13:35 | 27.28717 | 89.54226 | 11552 ft | 287 kts | 13° |
| 2026-04-26 13:35 | 27.30650 | 89.54170 | 11316 ft | 273 kts | 340° |
| 2026-04-26 13:35 | 27.32171 | 89.53057 | 11227 ft | 255 kts | 309° |
| 2026-04-26 13:36 | 27.32944 | 89.51363 | 11163 ft | 236 kts | 280° |
| 2026-04-26 13:36 | 27.32996 | 89.49579 | 11110 ft | 225 kts | 266° |
| 2026-04-26 13:36 | 27.33157 | 89.47835 | 11062 ft | 225 kts | 285° |
| 2026-04-26 13:36 | 27.33845 | 89.46268 | 11008 ft | 225 kts | 308° |
| 2026-04-26 13:37 | 27.35014 | 89.45112 | 10971 ft | 226 kts | 330° |
| 2026-04-26 13:37 | 27.36478 | 89.44471 | 10956 ft | 226 kts | 342° |
| 2026-04-26 13:37 | 27.37910 | 89.43964 | 11142 ft | 201 kts | 338° |
| 2026-04-26 13:37 | 27.39141 | 89.43392 | 11158 ft | 184 kts | 334° |
| 2026-04-26 13:38 | 27.40191 | 89.42654 | 11034 ft | 176 kts | 310° |
| 2026-04-26 13:38 | 27.40733 | 89.41424 | 10703 ft | 181 kts | 279° |
| 2026-04-26 13:38 | 27.40939 | 89.40034 | 10530 ft | 176 kts | 279° |
| 2026-04-26 13:38 | 27.41198 | 89.38698 | 10475 ft | 174 kts | 283° |
| 2026-04-26 13:39 | 27.41667 | 89.37442 | 10490 ft | 179 kts | 300° |
| 2026-04-26 13:39 | 27.42461 | 89.36404 | 10158 ft | 173 kts | 324° |
| 2026-04-26 13:39 | 27.43570 | 89.36026 | 9659 ft | 171 kts | 1° |
| 2026-04-26 13:39 | 27.44531 | 89.36663 | 9126 ft | 165 kts | 65° |
| 2026-04-26 13:40 | 27.44523 | 89.37909 | 8696 ft | 164 kts | 105° |
| 2026-04-26 13:40 | 27.44265 | 89.39162 | 8345 ft | 158 kts | 100° |
| 2026-04-26 13:40 | 27.44027 | 89.40364 | 8081 ft | 155 kts | 112° |
| 2026-04-26 13:40 | 27.43341 | 89.41266 | 7922 ft | 156 kts | 149° |
| 2026-04-26 13:41 | 27.42338 | 89.41675 | 7648 ft | 151 kts | 172° |
| 2026-04-26 13:41 | 27.41298 | 89.41873 | 7378 ft | 154 kts | 158° |
| 2026-04-26 13:41 | 27.40453 | 89.42387 | 7308 ft | 110 kts | 149° |
| 2026-04-26 13:41 | 27.40039 | 89.42651 | 7294 ft | 42 kts | 150° |
| 2026-04-26 13:42 | 27.39791 | 89.42811 | 7288 ft | 40 kts | 150° |
| 2026-04-26 13:42 | 27.39566 | 89.42956 | 7284 ft | 32 kts | 150° |
| 2026-04-26 13:42 | 27.39464 | 89.43022 | 7279 ft | 7 kts | 154° |
| 2026-04-26 13:42 | 27.39428 | 89.42993 | 7279 ft | 6 kts | 230° |
| 2026-04-26 13:43 | 27.39423 | 89.42955 | 7279 ft | 5 kts | 278° |
| 2026-04-26 13:43 | 27.39449 | 89.42920 | 7282 ft | 6 kts | 328° |
| 2026-04-26 13:43 | 27.39483 | 89.42898 | 7283 ft | 6 kts | 330° |
| 2026-04-26 13:43 | 27.39526 | 89.42874 | 7284 ft | 10 kts | 334° |
| 2026-04-26 13:44 | 27.39606 | 89.42825 | 7287 ft | 15 kts | 330° |
| 2026-04-26 13:44 | 27.39698 | 89.42766 | 7289 ft | 15 kts | 330° |
| 2026-04-26 13:44 | 27.39761 | 89.42725 | 7289 ft | 7 kts | 330° |
| 2026-04-26 13:44 | 27.39792 | 89.42705 | 7292 ft | 4 kts | 330° |
| 2026-04-26 13:45 | 27.39808 | 89.42695 | 7294 ft | 3 kts | 330° |
| 2026-04-26 13:45 | 27.39858 | 89.42663 | 7295 ft | 14 kts | 331° |
| 2026-04-26 13:45 | 27.39940 | 89.42610 | 7298 ft | 13 kts | 330° |
| 2026-04-26 13:45 | 27.40014 | 89.42564 | 7301 ft | 12 kts | 331° |
| 2026-04-26 13:46 | 27.40078 | 89.42524 | 7300 ft | 9 kts | 330° |
| 2026-04-26 13:46 | 27.40099 | 89.42510 | 7300 ft | 0 kts | 330° |
| 2026-04-26 13:46 | 27.40100 | 89.42509 | 7300 ft | 1 kts | 330° |
| 2026-04-26 13:46 | 27.40119 | 89.42497 | 7301 ft | 6 kts | 330° |
| 2026-04-26 13:47 | 27.40207 | 89.42441 | 7302 ft | 23 kts | 330° |
| 2026-04-26 13:47 | 27.40348 | 89.42352 | 7306 ft | 22 kts | 330° |
| 2026-04-26 13:47 | 27.40471 | 89.42273 | 7310 ft | 18 kts | 330° |
| 2026-04-26 13:47 | 27.40574 | 89.42208 | 7314 ft | 15 kts | 330° |
| 2026-04-26 13:48 | 27.40641 | 89.42164 | 7318 ft | 6 kts | 331° |
| 2026-04-26 13:48 | 27.40647 | 89.42135 | 7319 ft | 4 kts | 240° |
| 2026-04-26 13:48 | 27.40631 | 89.42105 | 7320 ft | 4 kts | 239° |
| 2026-04-26 13:48 | 27.40629 | 89.42102 | 7320 ft | 0 kts | 239° |